Airfield :
LOGIN :

Register | Disclaimer

   EN    FR    IT 

 










Legend :    VFR   Marginal VFR   IFR   Intensive IFR   Very Intensive IFR
Visi :
Ceiling :
>= 8 km
>= 3000ft
5 to 8 km
1000 to 3000 ft
1500m to 5 km
500 to 1000 ft
800 to 1500m
200 to 500 ft
< 800m
< 200 ft
Symbols :   Thunderstorms  Fog  Heavy snow  Heavy precipitations  Wind > 20 kt
SIGMETs :     Misc.  Thunderstorms  Icing  Turbulence  Mountain Waves  Volcanic Ashes






- Airport Elevation : 265 ft
- IATA code : BJY


LYBT - Batajnica Air Base

CURRENT METAR :
  • 280030Z VRB02KT CAVOK 19/19 Q1011 NOSIG

EXPIRED METARs :
  • 280000Z VRB02KT CAVOK 19/18 Q1011 RETS NOSIG
  • 272330Z VRB01KT CAVOK 19/17 Q1012 NOSIG
  • 272300Z 33004KT CAVOK 19/17 Q1012 NOSIG
  • 272230Z VRB03KT CAVOK 19/16 Q1012 NOSIG
  • 272200Z VRB01KT CAVOK 20/16 Q1012 NOSIG

TAF TAF LYBT
Valid from the 28 at 00:00 until the 29 at 00:00 UTC


272300Z 2800/2824 29008KT 9999 SCT040 TX21/2813Z TN13/2821Z
PROB30
TEMPO 2800/2803 32015G30KT 4000 TSRA SCT030CB BKN035
TEMPO 2817/2821 5000 SHRA SCT030TCU BKN033



MET'MAP, your aeronautical weather chart ! - Copyright ORBIFLY December 2007 - Disclaimer

ORBIFLY MET'MAP TEAM :

Programming & Development : Alexandra Zaïnal
Original concept : Baudouin d'Aumeries
Technical & hardware support : Manuel Goepfert
Assistance : Marc-Olivier Méhu

Contact : metmap@orbifly.com




SOURCES & CREDITS :

   NOAA